createdAt,value
2018-12-22T00:04:20.304Z,95227.44
2018-12-22T00:07:07.803Z,95220.94
2018-12-22T00:09:45.389Z,95239.00
2018-12-22T00:12:40.036Z,95251.16
2018-12-22T00:45:17.073Z,95249.28
2018-12-22T00:51:23.389Z,95249.67
2018-12-22T00:54:12.494Z,95253.31
2018-12-22T00:57:14.038Z,95264.97
2018-12-22T00:59:57.090Z,95267.22
2018-12-22T01:09:02.358Z,95267.02
2018-12-22T01:18:32.082Z,95273.23
2018-12-22T01:27:38.270Z,95275.10
2018-12-22T01:39:55.132Z,95288.20
2018-12-22T01:45:37.827Z,95287.30
2018-12-22T01:48:22.555Z,95299.27
2018-12-22T01:57:10.065Z,95321.92
2018-12-22T02:00:11.702Z,95316.06
2018-12-22T02:02:57.062Z,95319.50
2018-12-22T02:48:36.799Z,95352.92
2018-12-22T02:51:27.904Z,95359.56
2018-12-22T02:56:57.425Z,95375.16
2018-12-22T03:02:47.267Z,95359.13
2018-12-22T03:05:32.234Z,95362.27
2018-12-22T03:08:18.052Z,95361.28
2018-12-22T03:11:10.122Z,95369.30
2018-12-22T03:13:54.613Z,95367.39
2018-12-22T03:16:34.209Z,95369.09
2018-12-22T03:19:14.416Z,95373.23
2018-12-22T03:21:53.986Z,95378.16
2018-12-22T03:27:27.959Z,95375.84
2018-12-22T03:30:08.410Z,95367.47
2018-12-22T03:35:44.165Z,95359.75
2018-12-22T03:38:31.066Z,95351.30
2018-12-22T03:44:14.114Z,95360.84
2018-12-22T03:50:10.684Z,95355.52
2018-12-22T04:09:58.506Z,95383.46
2018-12-22T04:12:38.896Z,95388.40
2018-12-22T04:18:20.262Z,95357.92
2018-12-22T04:21:09.138Z,95379.34
2018-12-22T04:26:47.167Z,95352.81
2018-12-22T04:29:33.944Z,95366.66
2018-12-22T04:32:13.392Z,95364.95
2018-12-22T04:35:14.747Z,95366.27
2018-12-22T04:37:53.935Z,95373.94
2018-12-22T04:47:02.558Z,95365.69
2018-12-22T04:49:46.498Z,95367.69
2018-12-22T04:52:32.620Z,95361.25
2018-12-22T04:55:11.391Z,95370.80
2018-12-22T04:57:47.421Z,95368.97
2018-12-22T05:00:23.491Z,95365.34
2018-12-22T05:02:59.499Z,95362.34
2018-12-22T05:05:35.436Z,95353.78
2018-12-22T05:08:11.525Z,95365.41
2018-12-22T05:10:47.577Z,95373.03
2018-12-22T05:13:23.578Z,95371.99
2018-12-22T05:15:59.449Z,95363.53
2018-12-22T05:18:35.407Z,95351.67
2018-12-22T05:21:11.425Z,95351.35
2018-12-22T05:23:47.327Z,95350.78
2018-12-22T05:26:24.578Z,95367.23
2018-12-22T05:29:02.113Z,95357.61
2018-12-22T05:31:37.968Z,95360.09
2018-12-22T05:34:13.915Z,95369.77
2018-12-22T05:36:49.613Z,95376.35
2018-12-22T05:39:25.889Z,95374.55
2018-12-22T05:42:01.758Z,95376.94
2018-12-22T05:44:37.900Z,95380.47
2018-12-22T05:47:13.924Z,95393.03
2018-12-22T05:52:30.482Z,95395.55
2018-12-22T05:55:07.339Z,95398.05
2018-12-22T05:57:43.195Z,95385.20
2018-12-22T06:00:19.207Z,95387.61
2018-12-22T06:02:55.105Z,95388.40
2018-12-22T06:05:31.003Z,95399.00
2018-12-22T06:08:06.921Z,95397.80
2018-12-22T06:10:42.872Z,95407.84
2018-12-22T06:13:18.868Z,95416.80
2018-12-22T06:15:54.774Z,95419.59
2018-12-22T06:18:30.797Z,95411.00
2018-12-22T06:21:06.831Z,95424.55
2018-12-22T06:23:42.695Z,95413.91
2018-12-22T06:26:18.624Z,95419.89
2018-12-22T06:28:54.521Z,95419.80
2018-12-22T06:31:30.635Z,95430.80
2018-12-22T06:34:06.509Z,95442.70
2018-12-22T06:36:42.663Z,95437.13
2018-12-22T06:39:19.529Z,95445.48
2018-12-22T06:41:55.598Z,95443.14
2018-12-22T06:44:31.480Z,95437.99
2018-12-22T06:47:07.531Z,95445.00
2018-12-22T06:49:43.355Z,95454.31
2018-12-22T06:52:19.332Z,95449.20
2018-12-22T06:54:55.480Z,95442.94
2018-12-22T06:57:31.499Z,95451.67
2018-12-22T07:00:17.397Z,95458.16
2018-12-22T07:02:47.289Z,95459.30
2018-12-22T07:05:23.193Z,95457.99
2018-12-22T07:07:59.197Z,95443.97
2018-12-22T07:10:35.174Z,95459.27
2018-12-22T07:13:12.860Z,95462.70
2018-12-22T07:15:48.837Z,95468.41
2018-12-22T07:18:27.220Z,95473.17
2018-12-22T07:21:03.180Z,95466.61
2018-12-22T07:23:39.218Z,95477.97
2018-12-22T07:26:15.033Z,95482.93
2018-12-22T07:28:50.885Z,95502.05
2018-12-22T07:31:27.612Z,95505.08
2018-12-22T07:34:03.489Z,95518.33
2018-12-22T07:36:39.515Z,95524.70
2018-12-22T07:39:15.418Z,95533.92
2018-12-22T07:41:51.472Z,95537.93
2018-12-22T07:44:27.241Z,95542.89
2018-12-22T07:47:03.163Z,95552.22
2018-12-22T07:49:38.975Z,95540.52
2018-12-22T07:52:14.776Z,95541.02
2018-12-22T07:54:50.584Z,95528.96
2018-12-22T07:57:26.312Z,95531.27
2018-12-22T08:00:02.160Z,95534.55
2018-12-22T08:02:38.028Z,95530.42
2018-12-22T08:05:14.458Z,95550.99
2018-12-22T08:07:50.451Z,95578.42
2018-12-22T08:10:26.212Z,95576.37
2018-12-22T08:13:02.307Z,95582.09
2018-12-22T08:15:39.190Z,95570.58
2018-12-22T08:18:15.469Z,95573.12
2018-12-22T08:20:51.194Z,95579.30
2018-12-22T08:23:26.969Z,95573.40
2018-12-22T08:26:02.719Z,95571.71
2018-12-22T08:28:39.240Z,95575.27
2018-12-22T08:31:15.163Z,95565.37
2018-12-22T08:33:50.955Z,95567.11
2018-12-22T08:36:26.618Z,95571.65
2018-12-22T08:39:02.503Z,95584.27
2018-12-22T08:41:38.249Z,95579.22
2018-12-22T08:44:09.123Z,95591.22
2018-12-22T08:46:44.766Z,95592.28
2018-12-22T08:49:20.571Z,95596.92
2018-12-22T08:51:56.360Z,95590.11
2018-12-22T08:54:32.109Z,95619.98
2018-12-22T08:57:07.891Z,95609.44
2018-12-22T08:59:43.560Z,95606.49
2018-12-22T09:02:20.030Z,95609.54
2018-12-22T09:04:55.852Z,95623.11
2018-12-22T09:07:31.652Z,95630.17
2018-12-22T09:10:09.910Z,95634.19
2018-12-22T09:12:45.761Z,95635.81
2018-12-22T09:15:21.577Z,95646.05
2018-12-22T09:17:57.330Z,95653.69
2018-12-22T09:20:33.288Z,95657.47
2018-12-22T09:23:09.108Z,95662.14
2018-12-22T09:25:44.726Z,95670.95
2018-12-22T09:28:20.428Z,95663.38
2018-12-22T09:31:00.773Z,95685.38
2018-12-22T09:33:34.038Z,95675.51
2018-12-22T09:36:09.733Z,95696.01
2018-12-22T09:38:45.589Z,95684.83
2018-12-22T09:41:21.376Z,95673.19
2018-12-22T09:43:57.140Z,95684.15
2018-12-22T09:46:32.947Z,95667.67
2018-12-22T09:49:08.629Z,95692.42
2018-12-22T09:51:44.484Z,95714.36
2018-12-22T09:54:20.178Z,95712.70
2018-12-22T09:56:55.988Z,95725.77
2018-12-22T09:59:31.773Z,95719.02
2018-12-22T10:02:07.508Z,95719.69
2018-12-22T10:04:43.202Z,95722.30
2018-12-22T10:07:18.948Z,95718.53
2018-12-22T10:09:55.193Z,95718.34
2018-12-22T10:12:31.098Z,95725.69
2018-12-22T10:15:08.532Z,95720.14
2018-12-22T10:17:44.323Z,95719.84
2018-12-22T10:23:01.642Z,95736.81
2018-12-22T10:25:37.401Z,95720.88
2018-12-22T10:28:13.374Z,95717.55
2018-12-22T10:30:49.134Z,95713.58
2018-12-22T10:33:25.102Z,95715.84
2018-12-22T10:36:00.943Z,95706.39
2018-12-22T10:38:36.815Z,95704.47
2018-12-22T10:41:12.695Z,95709.76
2018-12-22T10:46:35.677Z,95721.80
2018-12-22T10:49:11.524Z,95720.97
2018-12-22T10:51:47.259Z,95711.73
2018-12-22T10:54:23.115Z,95713.48
2018-12-22T10:56:58.936Z,95704.73
2018-12-22T10:59:34.899Z,95714.27
2018-12-22T11:02:10.876Z,95710.37
2018-12-22T11:04:46.603Z,95700.30
2018-12-22T11:07:22.574Z,95710.45
2018-12-22T11:09:58.370Z,95703.16
2018-12-22T11:12:34.293Z,95697.75
2018-12-22T11:15:10.604Z,95707.03
2018-12-22T11:17:46.311Z,95720.35
2018-12-22T11:20:22.180Z,95710.80
2018-12-22T11:22:57.871Z,95706.11
2018-12-22T11:25:33.760Z,95710.62
2018-12-22T11:28:09.470Z,95719.03
2018-12-22T11:30:45.901Z,95717.09
2018-12-22T11:33:21.534Z,95716.45
2018-12-22T11:35:58.249Z,95722.89
2018-12-22T11:38:34.037Z,95725.13
2018-12-22T11:41:09.742Z,95725.90
2018-12-22T11:43:45.421Z,95721.97
2018-12-22T11:46:21.359Z,95732.13
2018-12-22T11:50:02.180Z,95733.61
2018-12-22T11:52:39.496Z,95723.70
2018-12-22T11:55:15.674Z,95722.16
2018-12-22T11:57:47.337Z,95722.97
2018-12-22T12:00:24.115Z,95727.52
2018-12-22T12:02:59.984Z,95736.94
2018-12-22T12:05:36.279Z,95730.61
2018-12-22T12:08:12.379Z,95729.58
2018-12-22T12:10:48.193Z,95724.14
2018-12-22T12:13:24.135Z,95726.27
2018-12-22T12:16:30.354Z,95726.62
2018-12-22T12:19:18.995Z,95727.63
2018-12-22T12:21:54.787Z,95731.99
2018-12-22T12:24:30.676Z,95730.95
2018-12-22T12:27:06.717Z,95727.75
2018-12-22T12:29:42.735Z,95718.55
2018-12-22T12:32:18.613Z,95727.41
2018-12-22T12:34:54.436Z,95722.27
2018-12-22T12:37:30.210Z,95716.31
2018-12-22T12:40:10.396Z,95708.56
2018-12-22T12:42:46.250Z,95719.59
2018-12-22T12:45:22.057Z,95712.38
2018-12-22T12:47:57.894Z,95721.16
2018-12-22T12:50:33.727Z,95721.45
2018-12-22T12:53:09.954Z,95725.81
2018-12-22T12:55:46.004Z,95724.10
2018-12-22T12:58:22.034Z,95712.77
2018-12-22T13:00:57.954Z,95725.77
2018-12-22T13:03:34.167Z,95726.22
2018-12-22T13:06:10.075Z,95732.73
2018-12-22T13:08:46.486Z,95720.74
2018-12-22T13:14:11.378Z,95733.55
2018-12-22T13:16:47.261Z,95728.66
2018-12-22T13:19:23.167Z,95734.42
2018-12-22T13:21:59.016Z,95739.83
2018-12-22T13:24:35.826Z,95728.24
2018-12-22T13:27:11.573Z,95731.00
2018-12-22T13:29:48.525Z,95741.39
2018-12-22T13:32:24.755Z,95741.50
2018-12-22T13:35:00.833Z,95746.05
2018-12-22T13:37:36.874Z,95750.33
2018-12-22T13:40:13.135Z,95743.81
2018-12-22T13:42:48.935Z,95747.83
2018-12-22T13:45:24.659Z,95752.86
2018-12-22T13:48:00.878Z,95751.12
2018-12-22T13:50:37.123Z,95760.09
2018-12-22T13:53:13.081Z,95766.78
2018-12-22T13:55:48.744Z,95757.46
2018-12-22T13:58:26.066Z,95757.52
2018-12-22T14:01:05.223Z,95768.14
2018-12-22T14:03:44.584Z,95766.45
2018-12-22T14:06:30.330Z,95768.61
2018-12-22T14:09:08.921Z,95774.21
2018-12-22T14:11:45.209Z,95780.35
2018-12-22T14:14:27.953Z,95782.47
2018-12-22T14:17:13.103Z,95778.86
2018-12-22T14:20:00.664Z,95791.42
2018-12-22T14:22:36.894Z,95785.46
2018-12-22T14:25:21.575Z,95790.60
2018-12-22T14:27:57.515Z,95789.97
2018-12-22T14:30:33.932Z,95801.16
2018-12-22T14:33:09.877Z,95810.34
2018-12-22T14:35:53.964Z,95804.31
2018-12-22T14:38:29.999Z,95805.92
2018-12-22T14:41:06.112Z,95818.80
2018-12-22T14:43:41.998Z,95816.60
2018-12-22T14:46:17.850Z,95826.22
2018-12-22T14:48:54.279Z,95804.78
2018-12-22T14:51:31.342Z,95822.97
2018-12-22T14:54:07.783Z,95809.72
2018-12-22T14:56:47.243Z,95819.39
2018-12-22T14:59:25.882Z,95821.63
2018-12-22T15:02:02.888Z,95836.08
2018-12-22T15:04:39.585Z,95824.34
2018-12-22T15:07:16.481Z,95824.42
2018-12-22T15:09:52.576Z,95834.41
2018-12-22T15:12:28.439Z,95835.70
2018-12-22T15:15:05.198Z,95837.54
2018-12-22T15:17:41.847Z,95837.72
2018-12-22T15:20:20.453Z,95838.38
2018-12-22T15:22:56.876Z,95832.20
2018-12-22T15:25:32.884Z,95841.01
2018-12-22T15:28:08.996Z,95849.14
2018-12-22T15:30:46.656Z,95858.97
2018-12-22T15:33:22.960Z,95860.97
2018-12-22T15:35:58.901Z,95858.97
2018-12-22T15:38:34.895Z,95853.14
2018-12-22T15:41:10.930Z,95860.20
2018-12-22T15:43:47.123Z,95865.91
2018-12-22T15:46:23.472Z,95866.79
2018-12-22T15:48:59.682Z,95869.85
2018-12-22T15:51:35.764Z,95869.85
2018-12-22T15:54:11.805Z,95872.40
2018-12-22T15:56:47.719Z,95867.06
2018-12-22T15:59:23.717Z,95867.31
2018-12-22T16:01:59.599Z,95860.27
2018-12-22T16:04:35.633Z,95864.87
2018-12-22T16:07:11.938Z,95873.23
2018-12-22T16:09:47.982Z,95869.42
2018-12-22T16:15:08.246Z,95882.03
2018-12-22T16:17:44.328Z,95879.67
2018-12-22T16:20:20.316Z,95889.77
2018-12-22T16:23:02.665Z,95876.19
2018-12-22T16:25:38.522Z,95879.36
2018-12-22T16:28:22.919Z,95883.07
2018-12-22T16:31:00.345Z,95887.34
2018-12-22T16:33:41.398Z,95885.31
2018-12-22T16:36:17.069Z,95880.34
2018-12-22T16:38:53.183Z,95886.25
2018-12-22T16:41:28.865Z,95886.33
2018-12-22T16:44:07.080Z,95881.07
2018-12-22T16:46:43.042Z,95882.65
2018-12-22T16:49:18.707Z,95892.47
2018-12-22T16:51:54.533Z,95889.92
2018-12-22T16:54:30.304Z,95894.75
2018-12-22T16:57:05.968Z,95892.41
2018-12-22T16:59:41.592Z,95901.63
2018-12-22T17:02:32.518Z,95901.12
2018-12-22T17:05:08.982Z,95898.99
2018-12-22T17:07:44.924Z,95907.05
2018-12-22T17:10:21.008Z,95907.28
2018-12-22T17:12:56.679Z,95902.09
2018-12-22T17:15:32.384Z,95911.81
2018-12-22T17:18:08.456Z,95910.33
2018-12-22T17:20:44.412Z,95919.09
2018-12-22T17:23:42.875Z,95916.18
2018-12-22T17:26:18.706Z,95923.92
2018-12-22T17:28:54.864Z,95939.28
2018-12-22T17:31:30.645Z,95933.23
2018-12-22T17:34:06.528Z,95927.33
2018-12-22T17:36:42.492Z,95931.95
2018-12-22T17:39:18.771Z,95931.19
2018-12-22T17:41:54.531Z,95926.63
2018-12-22T17:44:30.273Z,95932.81
2018-12-22T17:47:06.071Z,95951.77
2018-12-22T17:49:41.843Z,95944.44
2018-12-22T17:52:17.658Z,95946.22
2018-12-22T17:54:53.384Z,95944.02
2018-12-22T18:00:14.667Z,95939.70
2018-12-22T18:02:50.343Z,95941.94
2018-12-22T18:05:26.877Z,95939.00
2018-12-22T18:08:02.676Z,95939.95
2018-12-22T18:10:38.483Z,95948.81
2018-12-22T18:13:14.293Z,95945.93
2018-12-22T18:15:49.961Z,95958.45
2018-12-22T18:18:25.818Z,95956.64
2018-12-22T18:21:01.670Z,95962.95
2018-12-22T18:23:38.192Z,95958.41
2018-12-22T18:26:14.147Z,95959.94
2018-12-22T18:28:49.956Z,95955.20
2018-12-22T18:31:25.675Z,95964.52
2018-12-22T18:34:01.453Z,95970.39
2018-12-22T18:36:38.315Z,95975.05
2018-12-22T18:39:14.109Z,95960.83
2018-12-22T18:41:49.868Z,95958.05
2018-12-22T18:44:25.600Z,95970.50
2018-12-22T18:47:02.248Z,95970.95
2018-12-22T18:49:37.996Z,95972.74
2018-12-22T18:52:14.060Z,95971.52
2018-12-22T18:54:49.880Z,95973.20
2018-12-22T18:57:25.666Z,95973.08
2018-12-22T19:00:01.376Z,95982.05
2018-12-22T19:02:37.179Z,95976.47
2018-12-22T19:05:13.751Z,95979.92
2018-12-22T19:07:50.795Z,95989.31
2018-12-22T19:10:37.287Z,95979.95
2018-12-22T19:13:13.134Z,95981.26
2018-12-22T19:15:48.799Z,95990.80
2018-12-22T19:18:24.655Z,95984.66
2018-12-22T19:21:00.503Z,95978.12
2018-12-22T19:23:36.194Z,95980.17
2018-12-22T19:26:12.583Z,95987.84
2018-12-22T19:28:48.298Z,95997.20
2018-12-22T19:31:24.012Z,95996.27
2018-12-22T19:33:59.947Z,95998.56
2018-12-22T19:36:35.854Z,95987.98
2018-12-22T19:39:11.567Z,95993.55
2018-12-22T19:41:47.471Z,95997.92
2018-12-22T19:44:23.230Z,95998.81
2018-12-22T19:46:59.009Z,95994.45
2018-12-22T19:49:34.903Z,95994.41
2018-12-22T19:52:11.526Z,95996.89
2018-12-22T19:54:47.412Z,95990.55
2018-12-22T19:57:23.340Z,95984.13
2018-12-22T19:59:59.073Z,95981.40
2018-12-22T20:05:19.730Z,95973.94
2018-12-22T20:07:55.451Z,95979.49
2018-12-22T20:10:31.130Z,95972.54
2018-12-22T20:13:06.861Z,95968.91
2018-12-22T20:15:42.624Z,95976.23
2018-12-22T20:18:18.329Z,95977.09
2018-12-22T20:20:54.398Z,95978.39
2018-12-22T20:23:30.149Z,95983.45
2018-12-22T20:26:05.989Z,95987.34
2018-12-22T20:28:41.692Z,95990.95
2018-12-22T20:31:18.721Z,95994.98
2018-12-22T20:33:54.509Z,96004.20
2018-12-22T20:36:30.315Z,96009.99
2018-12-22T20:39:08.443Z,96008.82
2018-12-22T20:41:44.348Z,96018.41
2018-12-22T20:44:20.180Z,96017.11
2018-12-22T20:46:56.416Z,96019.09
2018-12-22T20:49:32.250Z,96017.11
2018-12-22T20:52:08.038Z,96024.34
2018-12-22T20:54:43.949Z,96021.39
2018-12-22T20:57:19.751Z,96023.50
2018-12-22T20:59:55.676Z,96026.42
2018-12-22T21:02:31.589Z,96030.45
2018-12-22T21:05:08.527Z,96030.85
2018-12-22T21:07:44.261Z,96028.42
2018-12-22T21:10:20.022Z,96031.55
2018-12-22T21:12:55.796Z,96037.23
2018-12-22T21:15:31.529Z,96035.37
2018-12-22T21:18:07.345Z,96044.83
2018-12-22T21:20:43.001Z,96043.91
2018-12-22T21:23:18.774Z,96043.91
2018-12-22T21:25:54.435Z,96037.41
2018-12-22T21:28:30.219Z,96041.31
2018-12-22T21:33:50.333Z,96038.84
2018-12-22T21:36:26.075Z,96039.97
2018-12-22T21:39:01.953Z,96043.75
2018-12-22T21:41:37.895Z,96047.30
2018-12-22T21:44:14.163Z,96050.03
2018-12-22T21:46:52.656Z,96045.83
2018-12-22T21:49:28.546Z,96051.20
2018-12-22T21:52:04.331Z,96043.09
2018-12-22T21:54:40.201Z,96042.52
2018-12-22T21:57:16.146Z,96044.34
2018-12-22T21:59:51.836Z,96043.23
2018-12-22T22:02:27.612Z,96046.96
2018-12-22T22:07:48.075Z,96046.00
2018-12-22T22:10:23.940Z,96039.49
2018-12-22T22:12:59.635Z,96036.41
2018-12-22T22:15:35.505Z,96038.02
2018-12-22T22:18:11.583Z,96036.58
2018-12-22T22:20:47.280Z,96044.44
2018-12-22T22:23:22.963Z,96044.61
2018-12-22T22:25:59.226Z,96042.14
2018-12-22T22:28:35.384Z,96035.45
2018-12-22T22:31:11.170Z,96030.08
2018-12-22T22:33:46.876Z,96036.93
2018-12-22T22:36:22.636Z,96040.66
2018-12-22T22:38:58.513Z,96043.45
2018-12-22T22:41:34.330Z,96040.53
2018-12-22T22:44:10.493Z,96038.75
2018-12-22T22:46:46.311Z,96039.13
2018-12-22T22:49:22.082Z,96041.25
2018-12-22T22:51:57.840Z,96046.46
2018-12-22T22:54:33.527Z,96046.77
2018-12-22T22:57:09.581Z,96049.68
2018-12-22T22:59:45.545Z,96055.64
2018-12-22T23:02:21.487Z,96047.48
2018-12-22T23:04:57.235Z,96057.07
2018-12-22T23:07:32.951Z,96067.52
2018-12-22T23:10:10.059Z,96067.87
2018-12-22T23:12:45.814Z,96061.67
2018-12-22T23:15:22.214Z,96068.89
2018-12-22T23:17:57.929Z,96061.59
2018-12-22T23:20:33.799Z,96063.54
2018-12-22T23:23:09.679Z,96062.44
2018-12-22T23:25:45.858Z,96060.34
2018-12-22T23:28:21.736Z,96065.87
2018-12-22T23:30:57.414Z,96074.63
2018-12-22T23:33:33.148Z,96066.64
2018-12-22T23:36:09.135Z,96065.98
2018-12-22T23:38:44.952Z,96078.67
2018-12-22T23:41:21.464Z,96069.91
2018-12-22T23:43:57.302Z,96065.67
2018-12-22T23:46:33.138Z,96066.00
2018-12-22T23:49:08.837Z,96076.25
2018-12-22T23:51:44.739Z,96076.09
2018-12-22T23:54:20.507Z,96086.00
2018-12-22T23:56:56.318Z,96083.25
2018-12-22T23:59:32.070Z,96084.22
